Latest Weather Observations for Shark Bay Airport

IDW60801

Issued at 7:03 pm WST Tuesday 24 January 2017 (issued every 30 minutes, with the page automatically refreshed every 10 minutes)

About weather observations | Map of weather stations | Latest weather observations for WA | Other Formats
Station Details ID: 006105 Name: SHARK BAY AIRPORT Lat: -25.89 Lon: 113.58 Height: 33.8 m
Data from the previous 72 hours. | See also: Recent months at Shark Bay Airport
Date/Time
WST
Temp
°C
App
Temp
°C
Dew
Point
°C
Rel
Hum
%
Delta-T
°C
Wind Press
QNH
hPa
Press
MSL
hPa
Rain since
9am
mm
Dir  Spd
km/h
Gust
km/h
Spd
kts
Gust
kts
24/07:00pm 27.5 21.8 13.1 41 8.5 S 35 50 19 27 1007.7 1007.5 0.0
24/06:43pm 28.0 21.9 13.1 39 8.8 S 37 56 20 30 1007.6 1007.4 0.0
24/06:30pm 28.3 23.2 14.9 44 8.2 S 35 46 19 25 1007.3 1007.1 0.0
24/06:00pm 29.7 24.2 14.7 40 9.2 S 37 52 20 28 1007.1 1006.9 0.0
24/05:36pm 30.4 23.7 12.3 33 10.6 SSW 39 57 21 31 1006.9 1006.7 0.0
24/05:30pm 30.7 24.5 13.9 36 10.1 SSW 39 52 21 28 1006.9 1006.7 0.0
24/05:07pm 30.5 25.3 14.6 38 9.7 SSW 35 56 19 30 1006.6 1006.4 0.0
24/05:00pm 30.6 25.0 15.5 40 9.4 SSW 39 54 21 29 1006.6 1006.4 0.0
24/04:30pm 31.3 25.5 14.9 37 10.1 SSW 39 56 21 30 1006.7 1006.5 0.0
24/04:00pm 32.7 26.8 14.8 34 11.1 SSW 39 54 21 29 1006.8 1006.6 0.0
24/03:30pm 33.5 27.5 14.5 31 11.7 SW 39 50 21 27 1007.0 1006.8 0.0
24/03:00pm 35.4 29.9 13.5 26 13.4 SW 35 46 19 25 1007.5 1007.3 0.0
24/02:30pm 37.1 32.1 11.1 21 15.4 SSW 28 37 15 20 1007.9 1007.7 0.0
24/02:00pm 37.0 32.7 13.1 24 14.6 SSW 28 37 15 20 1008.3 1008.1 0.0
24/01:30pm 35.4 30.5 12.4 25 13.8 SW 30 41 16 22 1008.5 1008.3 0.0
24/01:00pm 34.8 30.6 13.6 28 13.0 SW 28 35 15 19 1008.7 1008.5 0.0
24/12:30pm 36.4 33.2 11.9 23 14.7 SSW 20 32 11 17 1008.8 1008.6 0.0
24/12:00pm 36.5 33.1 11.3 22 15.0 S 20 33 11 18 1009.1 1008.9 0.0
24/11:30am 35.5 32.7 12.5 25 13.9 S 19 30 10 16 1009.6 1009.4 0.0
24/11:00am 34.0 30.3 9.3 22 14.1 S 19 28 10 15 1009.9 1009.7 0.0
24/10:30am 32.8 29.3 10.2 25 13.0 S 19 28 10 15 1010.3 1010.1 0.0
24/10:00am 31.1 27.4 9.3 26 12.3 S 19 28 10 15 1010.4 1010.2 0.0
24/09:30am 29.7 25.1 8.2 26 11.8 SSE 22 32 12 17 1010.5 1010.3 0.0
24/09:00am 28.5 24.2 9.2 30 10.7 SSE 22 32 12 17 1010.7 1010.5 0.0
24/08:30am 27.3 23.1 9.6 33 9.8 SSE 22 32 12 17 1010.7 1010.5 0.0
24/08:00am 25.3 21.0 10.7 40 8.2 SSE 24 32 13 17 1010.9 1010.7 0.0
24/07:30am 23.5 19.4 11.5 47 6.7 SSE 24 30 13 16 1010.8 1010.6 0.0
24/07:00am 22.2 18.9 12.7 55 5.4 SSE 22 35 12 19 1010.7 1010.5 0.0
24/06:30am 21.0 17.7 12.9 60 4.6 SSE 22 30 12 16 1010.6 1010.4 0.0
24/06:00am 20.6 17.2 12.6 60 4.5 SSE 22 35 12 19 1010.4 1010.2 0.0
24/05:30am 20.7 16.8 13.2 62 4.3 SSE 26 37 14 20 1009.9 1009.7 0.0
24/05:00am 20.6 17.2 13.6 64 4.0 SSE 24 30 13 16 1009.9 1009.7 0.0
24/04:30am 20.5 18.0 14.2 67 3.7 S 20 33 11 18 1010.0 1009.8 0.0
24/04:00am 20.6 17.5 14.5 68 3.6 S 24 33 13 18 1009.9 1009.7 0.0
24/03:30am 20.5 17.1 14.8 70 3.3 SSE 26 33 14 18 1009.9 1009.7 0.0
24/03:00am 20.4 18.1 15.8 75 2.7 SSE 22 35 12 19 1010.0 1009.8 0.0
24/02:30am 20.5 17.5 15.9 75 2.8 S 26 37 14 20 1009.9 1009.7 0.0
24/02:00am 20.7 17.4 16.1 75 2.8 S 28 44 15 24 1010.0 1009.8 0.0
24/01:30am 20.8 17.6 16.4 76 2.7 S 28 39 15 21 1010.2 1010.0 0.0
24/01:00am 20.9 16.9 16.3 75 2.8 S 32 50 17 27 1010.4 1010.2 0.0
24/12:57am 21.0 17.1 16.4 75 2.8 S 32 50 17 27 1010.5 1010.3 0.0
24/12:30am 21.0 17.2 16.6 76 2.7 S 32 44 17 24 1010.6 1010.4 0.0
24/12:00am 21.1 17.5 17.1 78 2.4 S 32 44 17 24 1010.7 1010.5 0.0
 
Date/Time
WST
Temp
°C
App
Temp
°C
Dew
Point
°C
Rel
Hum
%
Delta-T
°C
Wind Press
QNH
hPa
Press
MSL
hPa
Rain since
9am
mm
Dir  Spd
km/h
Gust
km/h
Spd
kts
Gust
kts
23/11:46pm 21.1 17.4 16.9 77 2.6 S 32 50 17 27 1010.8 1010.6 0.0
23/11:30pm 21.2 16.9 17.0 77 2.6 S 35 48 19 26 1011.0 1010.8 0.0
23/11:00pm 21.1 17.5 17.1 78 2.4 S 32 44 17 24 1011.2 1011.0 0.0
23/10:30pm 21.2 17.5 17.0 77 2.6 S 32 48 17 26 1011.2 1011.0 0.0
23/10:00pm 21.3 16.9 16.7 75 2.8 S 35 54 19 29 1010.9 1010.7 0.0
23/09:52pm 21.3 16.9 16.7 75 2.8 S 35 54 19 29 1010.9 1010.7 0.0
23/09:30pm 21.4 17.0 16.6 74 2.9 S 35 50 19 27 1010.7 1010.5 0.0
23/09:00pm 21.5 16.7 16.5 73 3.0 S 37 50 20 27 1010.4 1010.2 0.0
23/08:30pm 21.8 16.6 16.5 72 3.2 S 39 52 21 28 1010.2 1010.0 0.0
23/08:00pm 22.1 17.6 16.4 70 3.5 S 35 48 19 26 1010.0 1009.8 0.0
23/07:30pm 22.4 17.1 16.2 68 3.8 S 39 54 21 29 1009.8 1009.6 0.0
23/07:10pm 22.9 18.1 15.7 64 4.3 S 35 54 19 29 1009.6 1009.4 0.0
23/07:00pm 23.2 17.9 15.3 61 4.7 S 37 54 20 29 1009.4 1009.2 0.0
23/06:30pm 24.2 18.4 14.9 56 5.6 S 39 52 21 28 1009.1 1008.9 0.0
23/06:00pm 25.3 20.9 15.6 55 5.9 SSW 33 46 18 25 1008.9 1008.7 0.0
23/05:37pm 26.0 21.6 15.7 53 6.3 SSW 33 52 18 28 1008.8 1008.6 0.0
23/05:30pm 26.1 21.3 15.5 52 6.4 SSW 35 52 19 28 1008.9 1008.7 0.0
23/05:00pm 26.6 21.9 15.9 51 6.6 SSW 35 52 19 28 1008.8 1008.6 0.0
23/04:30pm 27.7 23.3 15.7 48 7.4 SSW 33 48 18 26 1008.9 1008.7 0.0
23/04:00pm 28.0 23.6 15.6 46 7.6 SSW 33 46 18 25 1009.3 1009.1 0.0
23/03:30pm 28.2 23.5 14.8 44 8.1 SSW 33 48 18 26 1009.6 1009.4 0.0
23/03:00pm 28.5 23.6 15.4 45 8.0 SW 35 44 19 24 1009.7 1009.5 0.0
23/02:30pm 28.8 24.2 15.0 43 8.4 SW 33 46 18 25 1010.0 1009.8 0.0
23/02:00pm 29.2 24.7 13.8 39 9.2 SSW 30 41 16 22 1010.2 1010.0 0.0
23/01:30pm 29.6 24.1 12.5 35 10.1 SSW 33 48 18 26 1010.6 1010.4 0.0
23/01:00pm 28.6 23.2 12.9 38 9.3 SW 33 44 18 24 1010.8 1010.6 0.0
23/12:30pm 30.5 25.3 8.8 26 12.1 SSE 26 35 14 19 1010.9 1010.7 0.0
23/12:00pm 29.6 24.0 8.6 27 11.6 SE 28 41 15 22 1011.3 1011.1 0.0
23/11:30am 28.6 23.0 8.8 29 10.9 SSE 28 41 15 22 1011.7 1011.5 0.0
23/11:00am 27.9 22.9 9.7 32 10.1 SSE 26 43 14 23 1012.0 1011.8 0.0
23/10:30am 26.2 21.3 10.0 36 9.0 SSE 26 43 14 23 1012.4 1012.2 0.0
23/10:00am 24.9 19.7 10.4 40 8.1 SSE 28 43 15 23 1012.7 1012.5 0.0
23/09:30am 23.9 18.9 10.9 44 7.2 SSE 28 39 15 21 1012.9 1012.7 0.0
23/09:00am 22.5 16.4 11.6 50 6.1 SSE 35 50 19 27 1013.2 1013.0 0.0
23/08:30am 21.8 15.8 12.1 54 5.5 SSE 35 48 19 26 1013.2 1013.0 0.0
23/08:00am 21.1 15.2 12.3 57 5.0 SE 35 50 19 27 1013.0 1012.8 0.0
23/07:30am 20.4 14.6 12.6 61 4.4 SSE 35 54 19 29 1012.9 1012.7 0.0
23/07:02am 19.9 15.5 12.9 64 4.0 SSE 28 48 15 26 1012.6 1012.4 0.0
23/07:00am 20.1 16.2 13.3 65 3.9 SSE 26 37 14 20 1012.6 1012.4 0.0
23/06:30am 19.1 14.8 13.3 69 3.3 SSE 28 43 15 23 1012.2 1012.0 0.0
23/06:00am 18.8 14.6 13.4 71 3.1 SSE 28 41 15 22 1011.8 1011.6 0.0
23/05:30am 18.8 14.6 13.4 71 3.1 SSE 28 43 15 23 1011.3 1011.1 0.0
23/05:00am 19.0 14.4 13.6 71 3.1 SSE 30 44 16 24 1011.0 1010.8 0.0
23/04:30am 19.1 15.0 13.9 72 3.0 SSE 28 39 15 21 1010.8 1010.6 0.0
23/04:00am 19.2 15.5 13.8 71 3.1 SSE 26 39 14 21 1010.6 1010.4 0.0
23/03:30am 19.5 14.7 14.1 71 3.1 SSE 32 43 17 23 1010.5 1010.3 0.0
23/03:00am 19.7 15.0 14.3 71 3.1 SSE 32 43 17 23 1010.4 1010.2 0.0
23/02:36am 19.8 15.9 14.4 71 3.1 S 28 50 15 27 1010.4 1010.2 0.0
23/02:30am 19.9 15.7 14.7 72 3.0 S 30 43 16 23 1010.5 1010.3 0.0
23/02:01am 20.0 15.3 14.4 70 3.3 SSE 32 50 17 27 1010.6 1010.4 0.0
23/02:00am 20.0 15.3 14.4 70 3.3 SSE 32 48 17 26 1010.6 1010.4 0.0
23/01:32am 20.1 15.3 14.5 70 3.3 S 33 52 18 28 1010.7 1010.5 0.0
23/01:30am 20.1 14.9 14.5 70 3.3 S 35 52 19 28 1010.7 1010.5 0.0
23/01:21am 20.1 15.5 14.5 70 3.3 S 32 50 17 27 1010.8 1010.6 0.0
23/01:00am 20.2 15.6 14.6 70 3.3 S 32 44 17 24 1011.0 1010.8 0.0
23/12:30am 20.3 16.6 14.9 71 3.2 S 28 44 15 24 1011.1 1010.9 0.0
23/12:00am 20.4 15.3 14.7 70 3.3 S 35 54 19 29 1011.1 1010.9 0.0
 
Date/Time
WST
Temp
°C
App
Temp
°C
Dew
Point
°C
Rel
Hum
%
Delta-T
°C
Wind Press
QNH
hPa
Press
MSL
hPa
Rain since
9am
mm
Dir  Spd
km/h
Gust
km/h
Spd
kts
Gust
kts
22/11:41pm 20.5 15.9 15.1 71 3.2 S 33 52 18 28 1011.2 1011.0 0.0
22/11:30pm 20.6 16.2 15.2 71 3.2 S 32 44 17 24 1011.2 1011.0 0.0
22/11:00pm 20.6 15.7 15.2 71 3.2 S 35 50 19 27 1011.1 1010.9 0.0
22/10:37pm 21.1 15.9 15.6 71 3.3 S 37 57 20 31 1011.0 1010.8 0.0
22/10:30pm 21.2 16.6 16.2 73 3.0 S 35 50 19 27 1011.0 1010.8 0.0
22/10:05pm 21.1 17.0 15.9 72 3.1 S 32 50 17 27 1010.9 1010.7 0.0
22/10:00pm 21.2 17.6 16.2 73 3.0 S 30 46 16 25 1010.8 1010.6 0.0
22/09:39pm 21.2 16.6 16.2 73 3.0 S 35 54 19 29 1010.7 1010.5 0.0
22/09:30pm 21.3 16.0 16.3 73 3.0 S 39 56 21 30 1010.6 1010.4 0.0
22/09:01pm 21.4 17.0 16.6 74 2.9 S 35 57 19 31 1010.3 1010.1 0.0
22/09:00pm 21.4 17.0 16.6 74 2.9 S 35 50 19 27 1010.3 1010.1 0.0
22/08:40pm 21.4 17.3 16.4 73 3.0 S 33 54 18 29 1010.1 1009.9 0.0
22/08:30pm 21.4 17.4 16.6 74 2.9 S 33 46 18 25 1010.1 1009.9 0.0
22/08:10pm 21.7 17.7 16.6 73 3.1 S 33 54 18 29 1009.9 1009.7 0.0
22/08:00pm 21.7 16.7 16.2 71 3.3 S 37 50 20 27 1009.9 1009.7 0.0
22/07:50pm 21.8 17.8 16.3 71 3.3 S 32 50 17 27 1009.8 1009.6 0.0
22/07:30pm 22.1 17.6 16.4 70 3.5 S 35 50 19 27 1009.6 1009.4 0.0
22/07:00pm 22.7 17.3 16.0 66 4.1 S 39 54 21 29 1009.3 1009.1 0.0
22/06:47pm 23.1 18.5 16.2 65 4.2 S 35 54 19 29 1009.2 1009.0 0.0
22/06:30pm 23.6 17.8 16.1 62 4.6 S 41 54 22 29 1008.8 1008.6 0.0
22/06:16pm 23.9 18.8 15.7 60 5.0 S 37 57 20 31 1008.7 1008.5 0.0
22/06:00pm 24.3 18.8 15.8 59 5.2 S 39 54 21 29 1008.5 1008.3 0.0
22/05:30pm 25.2 19.7 15.8 56 5.7 S 39 56 21 30 1008.5 1008.3 0.0
22/05:22pm 25.6 20.6 16.2 56 5.8 SSW 37 56 20 30 1008.5 1008.3 0.0
22/05:00pm 26.0 20.7 16.3 55 6.0 S 39 52 21 28 1008.5 1008.3 0.0
22/04:52pm 26.3 22.0 16.0 53 6.3 S 33 52 18 28 1008.5 1008.3 0.0
22/04:30pm 26.4 21.4 16.1 53 6.3 SSW 37 54 20 29 1008.6 1008.4 0.0
22/04:00pm 26.8 21.8 16.1 52 6.6 SSW 37 50 20 27 1008.8 1008.6 0.0
22/03:30pm 27.2 22.5 15.9 50 6.9 S 35 54 19 29 1009.1 1008.9 0.0
22/03:00pm 27.9 22.7 15.5 46 7.6 S 37 54 20 29 1009.2 1009.0 0.0
22/02:52pm 28.1 23.5 16.1 48 7.4 SSW 35 54 19 29 1009.3 1009.1 0.0
22/02:30pm 28.5 24.1 16.7 48 7.4 SSW 35 48 19 26 1009.5 1009.3 0.0
22/02:00pm 28.0 23.1 15.3 46 7.8 SSW 35 48 19 26 1009.5 1009.3 0.0
22/01:30pm 27.8 23.0 15.5 47 7.5 SSW 35 46 19 25 1009.7 1009.5 0.0
22/01:00pm 27.0 21.9 15.7 50 6.9 SSW 37 50 20 27 1009.7 1009.5 0.0
22/12:30pm 27.7 23.2 15.4 47 7.5 SSW 33 48 18 26 1009.8 1009.6 0.0
22/12:00pm 28.1 23.9 15.7 46 7.6 SSW 32 44 17 24 1009.9 1009.7 0.0
22/11:30am 27.3 22.4 15.3 48 7.3 SW 35 48 19 26 1010.1 1009.9 0.0
22/11:00am 27.5 22.7 15.5 48 7.3 SSW 35 48 19 26 1010.0 1009.8 0.0
22/10:30am 27.2 22.5 14.9 47 7.4 SSW 33 43 18 23 1010.1 1009.9 0.0
22/10:00am 26.7 22.1 15.1 49 7.0 SSW 33 41 18 22 1010.2 1010.0 0.0
22/09:30am 25.8 21.9 15.5 53 6.3 SSW 30 43 16 23 1010.1 1009.9 0.0
22/09:00am 25.5 22.4 15.5 54 6.1 S 26 33 14 18 1010.2 1010.0 0.0
22/08:30am 25.0 22.7 15.6 56 5.7 S 22 32 12 17 1010.3 1010.1 0.0
22/08:00am 24.4 22.8 16.4 61 4.9 S 20 30 11 16 1010.2 1010.0 0.0
22/07:30am 23.1 22.2 16.9 68 3.8 S 17 24 9 13 1010.2 1010.0 0.0
22/07:00am 21.1 21.2 17.5 80 2.2 S 13 19 7 10 1010.2 1010.0 0.0
22/06:30am 19.9 19.9 17.3 85 1.6 SSW 13 15 7 8 1009.9 1009.7 0.0
22/06:00am 19.3 19.2 16.9 86 1.5 SSW 13 15 7 8 1009.6 1009.4 0.0
22/05:30am 19.3 19.9 16.7 85 1.6 S 9 11 5 6 1009.4 1009.2 0.0
22/05:00am 19.9 20.2 17.1 84 1.7 S 11 15 6 8 1009.1 1008.9 0.0
22/04:30am 20.3 20.3 17.3 83 1.8 S 13 17 7 9 1008.9 1008.7 0.0
22/04:00am 20.6 20.4 17.6 83 1.9 S 15 20 8 11 1008.6 1008.4 0.0
22/03:30am 20.6 19.6 17.6 83 1.8 S 19 28 10 15 1008.0 1007.8 0.0
22/03:00am 20.8 19.9 17.8 83 1.9 S 19 26 10 14 1007.6 1007.4 0.0
22/02:30am 21.0 20.2 18.0 83 1.9 S 19 28 10 15 1007.7 1007.5 0.0
22/02:00am 20.9 19.5 17.9 83 1.9 SSW 22 30 12 16 1007.5 1007.3 0.0
22/01:30am 20.8 19.8 18.0 84 1.7 SSW 20 28 11 15 1007.5 1007.3 0.0
22/01:00am 20.8 20.3 17.8 83 1.9 S 17 24 9 13 1007.8 1007.6 0.0
22/12:30am 21.1 20.3 17.9 82 2.0 S 19 24 10 13 1008.0 1007.8 0.0
22/12:00am 21.3 20.3 17.9 81 2.1 SSW 20 32 11 17 1008.0 1007.8 0.0
 
Date/Time
WST
Temp
°C
App
Temp
°C
Dew
Point
°C
Rel
Hum
%
Delta-T
°C
Wind Press
QNH
hPa
Press
MSL
hPa
Rain since
9am
mm
Dir  Spd
km/h
Gust
km/h
Spd
kts
Gust
kts
21/11:30pm 21.5 19.4 18.1 81 2.1 SSW 26 37 14 20 1007.9 1007.7 0.0
21/11:00pm 21.6 19.9 18.2 81 2.1 SSW 24 33 13 18 1008.0 1007.8 0.0
21/10:30pm 21.6 20.2 18.0 80 2.2 SSW 22 33 12 18 1008.0 1007.8 0.0
21/10:00pm 21.8 20.6 18.4 81 2.1 SSW 22 30 12 16 1007.9 1007.7 0.0
21/09:30pm 21.9 20.7 18.3 80 2.3 SSW 22 30 12 16 1007.6 1007.4 0.0
21/09:00pm 22.0 20.6 18.0 78 2.5 SW 22 32 12 17 1007.6 1007.4 0.0
21/08:30pm 22.3 20.2 18.1 77 2.6 SW 26 35 14 19 1007.5 1007.3 0.0
21/08:00pm 22.6 20.7 17.7 74 3.1 SSW 24 33 13 18 1007.2 1007.0 0.0
21/07:30pm 23.2 21.5 18.1 73 3.2 SSW 24 39 13 21 1006.8 1006.6 0.0

Other Formats:

Comma delimited format used in spreadsheet applications
http://www.bom.gov.au/fwo/IDW60801/IDW60801.95402.axf

JavaScript Object Notation format (JSON) in row-major order
http://www.bom.gov.au/fwo/IDW60801/IDW60801.95402.json